Tecumseh, Michigan
Current Conditions -  °F | °C
As of 10:53 AM on Thursday 30 Oct 2014 (Local Time) from KADG Reporting Station
Overcast Overcast  
Wind Chill: 43°   Ceiling: 4300
Heat Index: 43°   Visibility: 10mi
Dew Point: 35°   Wind: 3mph
Humidity: 74%   Direction: 270°W
Pressure: 30.15"   Gusts: NA
Location:  42°N, 83.94°W
Report Text: KADG 301453Z AUTO 27003KT 10SM OVC043 06/02 A3015 RMK AO2 SLP219 T00610017 50006
Loading
Personal Weather Stations






























Interactive Weather Map
Tropical Storm Tracking
New forecast layout! Learn more

10-Day Weather Forecast

Advertisements
Track Severe Weather on mobile